Time;durP1;ratioP1;P1;durP2;ratioP2;P2;SDS_P1;SDS_P2;PMS_P1;PMS_P2;Temp;Humidity;BMP_temperature;BMP_pressure;BME280_temperature;BME280_humidity;BME280_pressure;Samples;Min_cycle;Max_cycle;Signal;HPM_P1;HPM_P2
2022/02/15 00:00:01;;;;;;;;;73.25;62.50;;;;;-2.18;84.30;102467.25;5116514;28;9588;-75
2022/02/15 00:02:56;;;;;;;;;72.00;56.50;;;;;-2.08;83.62;102475.81;5116707;28;8840;-75
2022/02/15 00:05:52;;;;;;;;;72.75;59.00;;;;;-2.16;83.76;102467.03;5101861;28;8871;-74
2022/02/15 00:08:48;;;;;;;;;69.75;54.25;;;;;-2.09;82.91;102470.59;5115333;28;8865;-75
2022/02/15 00:11:26;;;;;;;;;56.75;50.00;;;;;-2.01;83.10;102462.28;5116104;28;8817;-74
2022/02/15 00:14:22;;;;;;;;;73.50;58.50;;;;;-2.04;82.60;102466.25;5116167;28;8938;-74
2022/02/15 00:17:04;;;;;;;;;75.00;59.50;;;;;-2.14;83.43;102465.81;5115785;28;8855;-75
2022/02/15 00:20:00;;;;;;;;;62.50;53.50;;;;;-2.05;82.99;102459.16;5101568;28;8836;-74
2022/02/15 00:22:55;;;;;;;;;65.50;53.75;;;;;-1.90;82.17;102456.28;5101749;28;8859;-74
2022/02/15 00:25:32;;;;;;;;;61.75;50.00;;;;;-1.91;81.94;102460.03;5116011;28;8943;-74
2022/02/15 00:28:27;;;;;;;;;86.25;68.00;;;;;-1.96;81.68;102449.78;5094673;28;8850;-73
2022/02/15 00:30:55;;;;;;;;;77.25;63.00;;;;;-1.98;81.65;102446.47;5095682;28;8852;-74
2022/02/15 00:33:50;;;;;;;;;80.75;66.00;;;;;-2.12;81.63;102439.31;5094820;28;8870;-73
2022/02/15 00:36:46;;;;;;;;;62.00;54.50;;;;;-2.09;81.57;102438.91;5103056;28;8870;-73
2022/02/15 00:39:15;;;;;;;;;71.25;59.00;;;;;-1.89;81.44;102433.53;5098412;28;8935;-73
2022/02/15 00:41:43;;;;;;;;;69.50;55.50;;;;;-1.96;81.32;102436.25;5113371;28;9602;-74
2022/02/15 00:44:11;;;;;;;;;61.67;49.00;;;;;-2.06;81.24;102434.97;5098299;28;8829;-73
2022/02/15 00:47:06;;;;;;;;;64.25;52.25;;;;;-1.98;81.58;102438.31;5090613;28;8834;-73
2022/02/15 00:50:03;;;;;;;;;50.50;47.25;;;;;-2.02;81.63;102433.50;5101220;28;9523;-72
2022/02/15 00:52:59;;;;;;;;;36.67;31.67;;;;;-2.27;82.74;102433.22;5114768;28;8948;-74
2022/02/15 00:55:55;;;;;;;;;57.00;46.75;;;;;-2.25;83.12;102431.13;5114685;28;8848;-73
2022/02/15 00:58:50;;;;;;;;;59.25;52.25;;;;;-2.26;82.69;102426.75;5094424;28;8828;-73
2022/02/15 01:01:46;;;;;;;;;66.00;55.00;;;;;-2.30;83.21;102428.19;5093795;28;8842;-73
2022/02/15 01:04:42;;;;;;;;;57.75;49.00;;;;;-2.22;82.60;102419.03;5093836;28;8870;-73
2022/02/15 01:11:29;;;;;;;;;52.67;40.33;;;;;-1.97;81.73;102415.59;5093707;28;8930;-73
2022/02/15 01:14:25;;;;;;;;;48.00;46.00;;;;;-1.92;81.28;102414.13;5105654;28;8836;-72
2022/02/15 01:17:21;;;;;;;;;44.67;43.67;;;;;-1.97;81.12;102412.03;5103233;28;9700;-73
2022/02/15 01:20:17;;;;;;;;;60.33;46.00;;;;;-2.04;80.88;102413.91;5114810;28;8826;-73
2022/02/15 01:23:18;;;;;;;;;60.25;54.00;;;;;-2.15;81.78;102418.03;5113753;28;8849;-72
2022/02/15 01:26:15;;;;;;;;;64.67;52.67;;;;;-2.08;81.30;102415.34;5114333;28;8913;-72
2022/02/15 01:29:10;;;;;;;;;52.50;48.00;;;;;-2.07;81.37;102409.72;5100102;28;9616;-72
2022/02/15 01:31:38;;;;;;;;;64.50;54.25;;;;;-2.04;80.73;102405.78;5114864;28;8859;-73
2022/02/15 01:34:07;;;;;;;;;52.33;48.33;;;;;-2.09;80.37;102409.09;5114854;28;8868;-73
2022/02/15 01:37:03;;;;;;;;;56.50;49.00;;;;;-2.24;80.88;102406.53;5113233;28;8836;-73
2022/02/15 01:39:59;;;;;;;;;76.50;63.50;;;;;-2.25;81.27;102406.75;5113597;28;8960;-73
2022/02/15 01:42:55;;;;;;;;;67.50;58.00;;;;;-2.27;81.36;102406.13;5113566;28;8927;-73
2022/02/15 01:45:51;;;;;;;;;81.00;65.75;;;;;-2.18;81.11;102412.19;5113300;28;8888;-73
2022/02/15 01:48:47;;;;;;;;;54.75;44.50;;;;;-2.01;80.38;102406.19;5112643;28;8837;-73
2022/02/15 01:51:42;;;;;;;;;64.00;53.00;;;;;-2.01;80.02;102418.91;5114110;28;8833;-72
2022/02/15 01:54:38;;;;;;;;;40.67;39.00;;;;;-1.78;80.30;102413.94;5113632;28;8841;-73
2022/02/15 01:57:34;;;;;;;;;24.67;24.67;;;;;-1.58;79.14;102421.28;5113445;28;8833;-73
2022/02/15 02:00:30;;;;;;;;;25.00;25.00;;;;;-1.42;79.27;102427.13;5113263;28;9728;-73
2022/02/15 02:03:25;;;;;;;;;42.33;40.00;;;;;-1.30;78.49;102421.91;5113429;28;8843;-73
2022/02/15 02:06:06;;;;;;;;;44.33;41.33;;;;;-1.24;78.39;102425.66;5110382;28;8841;-73
2022/02/15 02:09:03;;;;;;;;;66.33;54.00;;;;;-1.34;78.23;102427.94;5094503;28;8944;-74
2022/02/15 02:11:59;;;;;;;;;36.67;33.00;;;;;-1.27;78.01;102423.34;5093067;28;8931;-73
2022/02/15 02:14:59;;;;;;;;;46.33;43.67;;;;;-1.38;78.46;102423.97;5092471;28;8843;-73
2022/02/15 02:17:29;;;;;;;;;34.67;31.67;;;;;-1.51;78.83;102430.25;5104930;28;8828;-73
2022/02/15 02:20:25;;;;;;;;;15.33;14.33;;;;;-1.52;78.49;102434.84;5112861;28;8837;-73
2022/02/15 02:22:54;;;;;;;;;31.67;30.00;;;;;-1.53;78.93;102435.06;5114343;28;8921;-73
2022/02/15 02:25:49;;;;;;;;;35.33;34.00;;;;;-1.55;79.05;102432.53;5112779;28;8913;-73
2022/02/15 02:28:45;;;;;;;;;43.67;39.33;;;;;-1.58;78.67;102434.84;5111512;28;8865;-73
2022/02/15 02:31:27;;;;;;;;;36.67;36.00;;;;;-1.73;79.23;102424.19;5093208;28;8850;-73
2022/02/15 02:33:59;;;;;;;;;33.00;30.67;;;;;-1.67;78.50;102427.94;5113223;28;9570;-73
2022/02/15 02:36:55;;;;;;;;;40.33;38.00;;;;;-2.01;79.32;102416.19;5113225;27;8956;-73
2022/02/15 02:39:53;;;;;;;;;59.33;49.67;;;;;-1.86;79.28;102424.16;5112399;28;8840;-73
2022/02/15 02:42:49;;;;;;;;;46.67;34.67;;;;;-1.78;79.20;102413.09;5112638;28;8852;-73
2022/02/15 02:45:44;;;;;;;;;47.33;40.33;;;;;-1.83;79.34;102415.63;5113633;28;9619;-73
2022/02/15 02:48:15;;;;;;;;;78.33;54.33;;;;;-1.73;79.21;102416.03;5113442;28;8875;-73
2022/02/15 02:51:11;;;;;;;;;71.25;57.50;;;;;-1.62;78.49;102415.41;5112650;28;8853;-73
2022/02/15 02:54:07;;;;;;;;;16.67;16.67;;;;;-1.52;79.05;102406.88;5112652;28;8971;-73
2022/02/15 02:57:03;;;;;;;;;68.00;55.75;;;;;-1.33;78.62;102419.59;5112693;28;8865;-73
2022/02/15 02:59:59;;;;;;;;;77.50;64.00;;;;;-1.19;77.86;102409.56;5113123;28;8845;-73
2022/02/15 03:02:31;;;;;;;;;90.50;72.00;;;;;-1.10;77.40;102410.19;5113575;28;8875;-73
2022/02/15 03:05:28;;;;;;;;;85.50;70.50;;;;;-1.13;77.21;102406.84;5113334;28;8830;-73
2022/02/15 03:08:04;;;;;;;;;84.50;68.50;;;;;-1.08;77.53;102400.75;5104475;28;9648;-73
2022/02/15 03:10:41;;;;;;;;;99.50;78.75;;;;;-1.09;77.07;102404.53;5113317;28;8857;-73
2022/02/15 03:13:09;;;;;;;;;108.50;90.75;;;;;-1.01;77.03;102403.47;5113580;28;8968;-73
2022/02/15 03:16:05;;;;;;;;;108.00;87.75;;;;;-1.06;77.40;102415.00;5112191;28;8856;-73
2022/02/15 03:18:46;;;;;;;;;91.75;72.25;;;;;-0.95;76.76;102398.03;5112920;28;8853;-73
2022/02/15 03:21:42;;;;;;;;;100.75;80.25;;;;;-0.91;76.31;102398.47;5112477;28;8826;-73
2022/02/15 03:24:09;;;;;;;;;90.00;72.75;;;;;-0.91;76.48;102398.47;5113445;28;8944;-73
2022/02/15 03:27:05;;;;;;;;;78.50;66.00;;;;;-0.92;76.71;102397.63;5112360;28;8863;-73
2022/02/15 03:30:01;;;;;;;;;60.33;50.67;;;;;-0.95;76.41;102391.75;5092455;28;8823;-72
2022/02/15 03:32:42;;;;;;;;;31.67;31.67;;;;;-1.00;76.31;102391.56;5091839;28;8847;-72
2022/02/15 03:35:10;;;;;;;;;25.00;25.00;;;;;-0.86;75.87;102395.91;5074866;28;8875;-72
2022/02/15 03:37:43;;;;;;;;;31.00;31.00;;;;;-0.97;75.98;102394.69;5095689;28;9608;-72
2022/02/15 03:40:18;;;;;;;;;30.33;29.33;;;;;-1.01;75.97;102390.72;5113317;28;8858;-71
2022/02/15 03:43:13;;;;;;;;;32.67;31.67;;;;;-1.20;76.64;102395.16;5112129;28;9593;-73
2022/02/15 03:46:09;;;;;;;;;20.33;20.33;;;;;-1.18;76.23;102400.38;5116199;28;8836;-73
2022/02/15 03:48:37;;;;;;;;;54.33;45.00;;;;;-1.19;76.96;102399.53;5116839;28;8848;-73
2022/02/15 03:51:06;;;;;;;;;45.67;45.00;;;;;-1.11;76.74;102403.91;5116827;28;8833;-73
2022/02/15 03:54:01;;;;;;;;;72.75;62.50;;;;;-1.22;76.25;102397.25;5115877;28;8837;-73
2022/02/15 03:56:57;;;;;;;;;44.75;37.00;;;;;-1.26;76.49;102400.59;5115664;28;8956;-74
2022/02/15 03:59:52;;;;;;;;;80.75;67.25;;;;;-1.28;76.88;102402.69;5115828;28;9622;-73
2022/02/15 04:02:48;;;;;;;;;81.50;65.75;;;;;-1.18;75.98;102406.63;5115726;28;8863;-73
2022/02/15 04:05:44;;;;;;;;;53.75;48.00;;;;;-1.31;76.15;102400.38;5115767;28;8843;-73
2022/02/15 04:08:12;;;;;;;;;67.00;54.75;;;;;-1.30;76.49;102407.50;5116453;28;9475;-73
2022/02/15 04:10:57;;;;;;;;;73.50;61.50;;;;;-1.32;76.84;102409.56;5115791;28;8848;-73
2022/02/15 04:13:53;;;;;;;;;66.25;57.00;;;;;-1.24;76.09;102409.34;5115785;28;9587;-73
2022/02/15 04:16:49;;;;;;;;;54.00;49.67;;;;;-1.33;76.54;102405.19;5115461;28;8844;-73
2022/02/15 04:19:44;;;;;;;;;47.00;43.33;;;;;-1.45;76.61;102408.56;5114769;28;9590;-73
2022/02/15 04:22:30;;;;;;;;;40.67;39.33;;;;;-1.33;76.39;102416.03;5105619;28;8840;-72
2022/02/15 04:25:25;;;;;;;;;30.67;30.67;;;;;-1.45;76.77;102419.41;5113224;28;8852;-71
2022/02/15 04:27:54;;;;;;;;;30.67;30.67;;;;;-1.51;77.36;102420.22;5115585;28;8824;-71
2022/02/15 04:30:21;;;;;;;;;40.00;33.33;;;;;-1.51;76.82;102422.94;5107752;28;8828;-72
2022/02/15 04:32:49;;;;;;;;;53.67;41.67;;;;;-1.44;76.44;102426.50;5116287;28;8917;-72
2022/02/15 04:35:17;;;;;;;;;43.67;39.00;;;;;-1.40;76.33;102433.16;5098335;28;8952;-71
2022/02/15 04:38:13;;;;;;;;;36.67;36.67;;;;;-1.44;76.62;102418.34;5114403;28;8876;-73
2022/02/15 04:41:08;;;;;;;;;39.33;38.33;;;;;-1.45;76.93;102424.84;5115752;28;8964;-72
2022/02/15 04:43:36;;;;;;;;;37.00;36.67;;;;;-1.54;76.89;102423.34;5115717;28;8854;-71
2022/02/15 04:46:04;;;;;;;;;37.67;33.33;;;;;-1.47;76.76;102432.31;5116108;28;8954;-71
2022/02/15 04:49:00;;;;;;;;;28.00;23.00;;;;;-1.32;76.81;102436.72;5114682;28;8841;-72
2022/02/15 04:51:56;;;;;;;;;34.67;30.33;;;;;-1.41;76.98;102441.53;5114700;28;8817;-72
2022/02/15 04:54:51;;;;;;;;;31.33;31.33;;;;;-1.49;76.78;102442.56;5114757;28;8852;-72
2022/02/15 04:57:48;;;;;;;;;31.67;28.67;;;;;-1.50;77.10;102437.34;5114276;28;8914;-72
2022/02/15 05:00:45;;;;;;;;;21.00;19.00;;;;;-1.50;77.14;102438.19;5114162;28;8865;-72
2022/02/15 05:03:28;;;;;;;;;24.00;22.67;;;;;-1.48;76.89;102437.97;5115087;28;8886;-71
2022/02/15 05:06:24;;;;;;;;;27.33;19.67;;;;;-1.47;76.73;102447.78;5114060;28;8835;-72
2022/02/15 05:09:19;;;;;;;;;18.67;15.33;;;;;-1.45;76.87;102445.72;5084908;28;8882;-71
2022/02/15 05:11:47;;;;;;;;;19.00;19.00;;;;;-1.44;76.98;102450.94;5115387;28;8972;-72
2022/02/15 05:14:43;;;;;;;;;25.00;21.33;;;;;-1.48;76.92;102448.81;5112895;27;8880;-72
2022/02/15 05:17:33;;;;;;;;;22.00;22.00;;;;;-1.48;77.15;102454.25;5120690;27;8979;-72
2022/02/15 05:20:00;;;;;;;;;19.00;15.00;;;;;-1.52;77.36;102461.16;5115016;28;8927;-73
2022/02/15 05:22:28;;;;;;;;;13.67;13.67;;;;;-1.42;77.05;102465.13;5096799;28;8845;-72
2022/02/15 05:25:24;;;;;;;;;67.00;49.00;;;;;-1.41;76.91;102461.34;5105712;28;8843;-72
2022/02/15 05:28:11;;;;;;;;;36.00;32.33;;;;;-1.49;77.00;102464.28;5114534;28;8855;-72
2022/02/15 05:31:09;;;;;;;;;42.33;42.00;;;;;-1.41;77.15;102469.50;5093430;28;8816;-72
2022/02/15 05:34:04;;;;;;;;;36.33;36.33;;;;;-1.44;76.71;102474.53;5093575;28;9626;-72
2022/02/15 05:36:33;;;;;;;;;38.33;35.33;;;;;-1.43;77.31;102473.47;5113204;28;8964;-73
2022/02/15 05:39:29;;;;;;;;;12.67;12.67;;;;;-1.46;76.87;102485.59;5113201;28;8940;-73
2022/02/15 05:42:24;;;;;;;;;24.67;24.67;;;;;-1.44;76.93;102488.91;5112058;28;9681;-73
2022/02/15 05:45:20;;;;;;;;;24.00;24.00;;;;;-1.37;76.81;102498.97;5093455;28;8835;-74
2022/02/15 05:48:16;;;;;;;;;22.33;22.33;;;;;-1.32;76.56;102491.00;5094738;28;8823;-73
2022/02/15 05:50:50;;;;;;;;;35.33;35.33;;;;;-1.26;76.39;102493.72;5076190;28;8828;-72
2022/02/15 05:53:22;;;;;;;;;26.67;23.00;;;;;-1.07;75.96;102494.78;5093881;28;8831;-72
2022/02/15 05:55:52;;;;;;;;;31.67;27.33;;;;;-1.08;75.85;102501.25;5094117;28;8836;-73
2022/02/15 05:58:24;;;;;;;;;24.00;24.00;;;;;-1.04;75.44;102490.81;5093836;28;8955;-73
2022/02/15 06:00:52;;;;;;;;;24.67;24.67;;;;;-0.90;75.30;102493.31;5093967;28;8843;-72
2022/02/15 06:06:11;;;;;;;;;24.00;18.00;;;;;-0.94;75.06;102500.19;5087880;28;9114;-73
2022/02/15 06:08:39;;;;;;;;;15.67;15.67;;;;;-0.86;74.85;102499.97;5092972;28;8882;-74
2022/02/15 06:11:09;;;;;;;;;21.67;20.33;;;;;-0.76;74.53;102496.03;5108977;28;8831;-73
2022/02/15 06:13:36;;;;;;;;;18.67;18.67;;;;;-0.76;74.31;102493.31;5093757;28;8877;-73
2022/02/15 06:16:05;;;;;;;;;19.67;19.33;;;;;-0.69;74.44;102497.69;5093379;28;8831;-73
2022/02/15 06:18:33;;;;;;;;;12.00;10.00;;;;;-0.51;73.96;102491.56;5093719;28;9623;-73
2022/02/15 06:21:02;;;;;;;;;23.67;20.00;;;;;-0.45;74.05;102485.28;5093377;28;8855;-74
2022/02/15 06:23:30;;;;;;;;;20.33;20.33;;;;;-0.38;73.76;102499.69;5093566;28;8862;-78
2022/02/15 06:26:26;;;;;;;;;20.33;20.33;;;;;-0.27;73.35;102495.47;5095782;28;8848;-78
2022/02/15 06:28:53;;;;;;;;;23.00;21.33;;;;;-0.19;72.61;102499.81;5113399;28;8828;-84
2022/02/15 06:31:49;;;;;;;;;21.67;19.67;;;;;0.05;72.16;102493.66;5112897;28;8933;-83
2022/02/15 06:34:45;;;;;;;;;16.00;16.00;;;;;0.08;71.87;102498.69;5098838;28;8843;-86
2022/02/15 06:37:26;;;;;;;;;29.33;25.00;;;;;0.26;71.91;102495.22;5111023;28;8842;-84
2022/02/15 06:39:54;;;;;;;;;45.33;40.67;;;;;0.38;71.02;102493.44;5095837;28;8842;-81
2022/02/15 06:42:50;;;;;;;;;22.67;22.67;;;;;0.38;70.57;102485.28;5092792;28;8870;-82
2022/02/15 06:45:46;;;;;;;;;24.00;22.00;;;;;0.66;70.36;102486.78;5094572;28;8875;-82
2022/02/15 06:48:41;;;;;;;;;34.33;34.33;;;;;1.01;69.85;102496.16;5112440;28;8837;-81
2022/02/15 06:51:09;;;;;;;;;9.33;9.33;;;;;1.13;69.21;102495.41;5095343;28;8870;-83
2022/02/15 06:53:37;;;;;;;;;21.67;20.67;;;;;1.32;69.47;102499.84;5093092;28;8819;-82
2022/02/15 06:56:32;;;;;;;;;27.33;23.00;;;;;1.50;69.64;102504.47;5095910;28;8867;-82
2022/02/15 06:59:28;;;;;;;;;45.33;35.33;;;;;1.47;69.30;102500.31;5092831;28;8837;-84
2022/02/15 07:02:24;;;;;;;;;33.00;32.33;;;;;1.61;68.75;102498.25;5107984;28;8923;-83
2022/02/15 07:05:19;;;;;;;;;66.67;52.67;;;;;1.64;69.13;102492.38;5080370;28;8889;-78
2022/02/15 07:08:15;;;;;;;;;20.00;20.00;;;;;1.86;68.46;102495.47;5092612;28;8827;-84
2022/02/15 07:11:11;;;;;;;;;16.67;16.67;;;;;1.99;67.94;102494.44;5113270;28;11551;-83
2022/02/15 07:14:03;;;;;;;;;38.67;33.00;;;;;2.39;67.64;102495.59;5114457;28;8828;-79
2022/02/15 07:16:59;;;;;;;;;28.00;24.33;;;;;2.48;66.44;102496.94;5112375;28;11660;-83
2022/02/15 07:19:54;;;;;;;;;31.00;27.25;;;;;2.66;65.78;102492.44;5114600;28;11495;-84
2022/02/15 07:22:36;;;;;;;;;25.00;25.00;;;;;2.88;64.89;102495.47;5100577;28;11593;-85
2022/02/15 07:25:07;;;;;;;;;16.50;16.50;;;;;3.18;64.80;102496.22;5116349;28;11660;-85
2022/02/15 07:28:03;;;;;;;;;21.75;20.75;;;;;3.32;63.61;102488.59;5115496;28;11554;-85
2022/02/15 07:30:59;;;;;;;;;19.25;16.50;;;;;3.49;62.42;102494.19;5103339;28;11561;-84
2022/02/15 07:33:55;;;;;;;;;34.75;33.75;;;;;3.52;62.16;102490.94;5116008;28;11542;-82
2022/02/15 07:36:37;;;;;;;;;16.75;16.75;;;;;3.59;61.74;102499.88;5101038;28;11512;-85
2022/02/15 07:39:04;;;;;;;;;34.00;27.25;;;;;3.83;59.94;102490.56;5111742;28;11545;-84
2022/02/15 07:41:41;;;;;;;;;18.00;13.00;;;;;4.19;59.86;102489.34;5098541;28;11519;-82
2022/02/15 07:44:37;;;;;;;;;14.75;14.75;;;;;4.49;58.69;102484.69;5115592;28;11551;-82
2022/02/15 07:47:04;;;;;;;;;24.00;23.50;;;;;4.44;57.69;102489.00;5117480;28;12400;-84
2022/02/15 07:50:00;;;;;;;;;12.00;12.00;;;;;4.86;57.95;102487.81;5102102;28;11540;-85
2022/02/15 07:52:57;;;;;;;;;24.00;23.00;;;;;4.57;56.79;102481.56;5116141;28;11525;-81
2022/02/15 07:55:53;;;;;;;;;17.00;17.00;;;;;4.74;56.94;102475.00;5091019;28;11638;-81
2022/02/15 07:58:20;;;;;;;;;21.75;18.75;;;;;4.76;56.67;102471.22;5115269;28;11592;-79
2022/02/15 08:00:49;;;;;;;;;17.25;13.25;;;;;4.73;56.45;102473.34;5115139;28;11513;-78
2022/02/15 08:03:17;;;;;;;;;16.00;13.00;;;;;5.01;56.22;102472.44;5098058;28;11513;-78
2022/02/15 08:05:46;;;;;;;;;17.75;16.25;;;;;5.03;56.47;102467.53;5116826;28;11552;-77
2022/02/15 08:08:17;;;;;;;;;15.00;13.50;;;;;5.45;56.35;102474.47;5117569;28;12356;-78
2022/02/15 08:11:12;;;;;;;;;10.75;10.00;;;;;5.75;55.20;102479.50;5117737;28;11536;-78
2022/02/15 08:13:44;;;;;;;;;13.50;13.50;;;;;5.81;56.12;102478.50;5117291;28;11581;-79
2022/02/15 08:16:13;;;;;;;;;12.25;10.00;;;;;5.93;54.90;102487.47;5116377;28;11572;-79
2022/02/15 08:18:49;;;;;;;;;10.75;10.75;;;;;6.17;53.84;102493.53;5116887;28;11545;-80
2022/02/15 08:21:48;;;;;;;;;8.50;8.50;;;;;6.26;54.29;102491.97;5108340;28;11502;-79
2022/02/15 08:24:44;;;;;;;;;13.00;13.00;;;;;6.25;53.06;102492.25;5099064;28;11640;-77
2022/02/15 08:27:12;;;;;;;;;16.75;16.75;;;;;6.55;53.77;102483.47;5095530;28;11549;-77
2022/02/15 08:29:41;;;;;;;;;17.25;17.25;;;;;6.58;53.49;102481.03;5110966;28;11523;-78
2022/02/15 08:32:37;;;;;;;;;10.50;10.50;;;;;6.90;52.71;102475.56;5081049;28;11547;-78
2022/02/15 08:35:06;;;;;;;;;13.25;11.50;;;;;6.92;52.81;102472.53;5107003;28;11372;-78
2022/02/15 08:37:35;;;;;;;;;12.25;12.25;;;;;6.75;52.72;102472.69;5081314;28;11454;-78
2022/02/15 08:40:31;;;;;;;;;10.50;10.50;;;;;7.25;52.26;102482.41;5113552;28;11548;-79
2022/02/15 08:43:27;;;;;;;;;15.25;14.75;;;;;7.15;51.91;102482.34;5114620;28;11415;-77
2022/02/15 08:46:23;;;;;;;;;12.75;12.75;;;;;7.10;51.07;102487.81;5114999;28;11438;-79
2022/02/15 08:49:19;;;;;;;;;12.00;12.00;;;;;7.13;50.54;102479.00;5114709;28;11498;-78
2022/02/15 08:52:14;;;;;;;;;15.25;15.25;;;;;7.30;51.54;102481.63;5115131;28;11494;-79
2022/02/15 08:55:10;;;;;;;;;12.50;10.75;;;;;7.22;51.93;102475.53;5114413;28;11617;-79
2022/02/15 08:57:39;;;;;;;;;25.00;18.00;;;;;7.47;51.09;102468.50;5115011;28;11451;-79
2022/02/15 09:00:36;;;;;;;;;12.50;12.50;;;;;7.29;50.55;102469.78;5114546;28;11475;-77
2022/02/15 09:03:03;;;;;;;;;12.25;11.25;;;;;7.77;50.19;102465.09;5115149;28;11429;-77
2022/02/15 09:06:01;;;;;;;;;11.25;10.25;;;;;7.92;50.11;102459.63;5113424;28;11539;-78
2022/02/15 09:08:57;;;;;;;;;10.00;9.75;;;;;8.03;50.27;102458.56;5113044;28;11427;-78
2022/02/15 09:11:25;;;;;;;;;9.50;9.50;;;;;8.23;49.32;102460.56;5115015;28;11412;-78
2022/02/15 09:13:53;;;;;;;;;11.25;11.25;;;;;8.19;48.88;102461.34;5096550;28;11483;-80
2022/02/15 09:16:49;;;;;;;;;9.75;9.00;;;;;8.25;48.98;102463.03;5080373;28;11133;-79
2022/02/15 09:19:17;;;;;;;;;13.25;11.75;;;;;8.47;48.63;102444.34;5112411;28;11174;-77
2022/02/15 09:22:13;;;;;;;;;8.75;8.75;;;;;8.26;49.15;102448.16;5104456;28;11485;-79
2022/02/15 09:25:10;;;;;;;;;7.75;7.50;;;;;8.48;47.37;102451.53;5112809;27;11118;-78
2022/02/15 09:28:05;;;;;;;;;9.25;9.25;;;;;8.53;47.55;102442.44;5109261;28;11897;-79
2022/02/15 09:31:05;;;;;;;;;10.25;9.75;;;;;8.60;47.90;102443.00;5114398;28;10771;-79
2022/02/15 09:33:52;;;;;;;;;16.00;13.75;;;;;8.75;46.62;102440.25;5113843;28;11353;-78
2022/02/15 09:36:24;;;;;;;;;9.75;9.25;;;;;8.71;46.23;102441.88;5114074;28;11466;-78
2022/02/15 09:38:51;;;;;;;;;14.00;12.75;;;;;8.62;46.03;102438.84;5114737;28;11110;-78
2022/02/15 09:41:47;;;;;;;;;6.50;6.00;;;;;8.90;47.23;102429.19;5112737;28;11281;-78
2022/02/15 09:44:29;;;;;;;;;6.00;6.00;;;;;9.22;46.50;102425.28;5113221;28;10953;-73
2022/02/15 09:47:27;;;;;;;;;9.00;9.00;;;;;9.18;45.37;102430.53;5112116;28;11611;-74
2022/02/15 09:50:23;;;;;;;;;9.00;9.00;;;;;9.13;45.28;102422.28;5110835;28;11080;-72
2022/02/15 09:53:18;;;;;;;;;11.75;11.75;;;;;9.06;44.86;102420.91;5096947;28;10868;-73
2022/02/15 09:56:14;;;;;;;;;8.00;8.00;;;;;9.26;45.24;102406.22;5109809;28;11733;-73
2022/02/15 09:59:14;;;;;;;;;11.00;11.00;;;;;9.80;45.80;102410.97;5108909;28;11015;-73
2022/02/15 10:01:42;;;;;;;;;1.75;1.75;;;;;9.84;45.26;102401.84;5114030;28;11109;-76
2022/02/15 10:04:14;;;;;;;;;9.25;9.25;;;;;9.62;45.42;102399.47;5114323;28;10721;-77
2022/02/15 10:06:57;;;;;;;;;19.25;12.75;;;;;9.68;45.07;102397.50;5113236;28;10882;-75
2022/02/15 10:09:27;;;;;;;;;8.25;7.50;;;;;9.84;44.96;102388.03;5114001;28;10954;-74
2022/02/15 10:12:14;;;;;;;;;6.00;6.00;;;;;10.13;43.23;102385.38;5107547;28;10613;-74
2022/02/15 10:14:44;;;;;;;;;7.25;7.00;;;;;10.39;44.12;102383.28;5093577;28;10536;-74
2022/02/15 10:17:37;;;;;;;;;7.25;7.25;;;;;10.35;43.02;102373.91;5078787;28;10646;-73
2022/02/15 10:20:05;;;;;;;;;8.75;8.75;;;;;10.56;42.25;102380.91;5093323;28;10509;-74
2022/02/15 10:22:38;;;;;;;;;7.25;7.25;;;;;10.55;43.11;102367.38;5093567;28;10447;-74
2022/02/15 10:25:35;;;;;;;;;10.00;10.00;;;;;10.45;42.88;102367.47;5104011;28;10662;-74
2022/02/15 10:28:12;;;;;;;;;1.00;1.00;;;;;10.55;43.43;102365.44;5093338;28;10613;-74
2022/02/15 10:30:51;;;;;;;;;4.25;4.25;;;;;10.84;42.21;102361.84;5093013;28;10218;-74
2022/02/15 10:33:32;;;;;;;;;4.50;4.25;;;;;10.67;41.27;102364.25;5093058;28;10231;-73
2022/02/15 10:36:06;;;;;;;;;9.75;9.75;;;;;11.25;41.62;102364.16;5093037;28;10435;-73
2022/02/15 10:38:38;;;;;;;;;3.75;3.75;;;;;11.40;41.56;102359.25;5093025;28;11090;-76
2022/02/15 10:41:14;;;;;;;;;8.00;6.25;;;;;11.64;39.57;102364.78;5093528;28;10350;-75
2022/02/15 10:43:51;;;;;;;;;7.75;7.75;;;;;11.70;40.01;102360.00;5098907;28;10013;-74
2022/02/15 10:46:25;;;;;;;;;9.00;7.00;;;;;11.81;39.90;102358.78;5097055;28;9935;-75
2022/02/15 10:48:53;;;;;;;;;5.00;5.00;;;;;11.92;39.04;102354.72;5093180;28;9927;-74
2022/02/15 10:51:49;;;;;;;;;4.00;4.00;;;;;11.66;39.24;102354.25;5093016;28;10120;-74
2022/02/15 10:54:45;;;;;;;;;9.00;9.00;;;;;11.59;38.89;102347.41;5091049;28;9794;-74
2022/02/15 10:57:15;;;;;;;;;9.25;8.25;;;;;11.92;38.24;102349.19;5092744;28;10004;-73
2022/02/15 10:59:48;;;;;;;;;5.50;5.50;;;;;11.99;39.15;102350.75;5092728;28;10118;-73
2022/02/15 11:02:27;;;;;;;;;7.25;7.25;;;;;11.70;38.67;102337.81;5092831;28;9856;-74
2022/02/15 11:05:11;;;;;;;;;8.75;6.50;;;;;12.27;38.22;102343.38;5099921;28;9887;-78
2022/02/15 11:07:54;;;;;;;;;9.75;4.75;;;;;12.25;38.05;102335.34;5112512;28;10806;-79
2022/02/15 11:10:39;;;;;;;;;10.00;9.00;;;;;12.11;37.49;102335.28;5112551;28;10498;-78
2022/02/15 11:13:22;;;;;;;;;8.75;7.50;;;;;12.39;38.20;102327.09;5096940;28;9994;-77
2022/02/15 11:15:55;;;;;;;;;8.50;8.50;;;;;12.32;37.69;102324.69;5113248;28;9719;-78
2022/02/15 11:18:51;;;;;;;;;9.50;7.75;;;;;12.30;36.76;102318.63;5111716;28;10600;-77
2022/02/15 11:21:24;;;;;;;;;1.00;1.00;;;;;12.45;37.49;102326.69;5112611;28;9918;-78
2022/02/15 11:24:11;;;;;;;;;7.00;5.25;;;;;12.44;36.93;102307.59;5090322;28;9760;-79
2022/02/15 11:26:57;;;;;;;;;7.50;7.50;;;;;12.75;36.36;102310.63;5112652;28;9836;-80
2022/02/15 11:29:56;;;;;;;;;5.75;5.75;;;;;12.75;35.63;102303.13;5110641;28;9640;-80
2022/02/15 11:32:26;;;;;;;;;15.50;12.75;;;;;12.75;35.60;102313.41;5113256;28;9471;-80
2022/02/15 11:34:55;;;;;;;;;5.00;5.00;;;;;12.44;36.83;102296.47;5113570;28;9781;-79
2022/02/15 11:37:51;;;;;;;;;4.00;4.00;;;;;12.61;35.33;102291.16;5111594;28;9701;-80
2022/02/15 11:40:35;;;;;;;;;9.00;4.00;;;;;12.50;36.27;102285.00;5111740;28;9786;-79
2022/02/15 11:43:05;;;;;;;;;8.00;8.00;;;;;12.75;35.76;102289.25;5113262;28;9693;-81
2022/02/15 11:45:38;;;;;;;;;6.50;6.50;;;;;12.41;37.58;102274.88;5112284;28;9895;-83
2022/02/15 11:48:08;;;;;;;;;9.50;8.75;;;;;12.77;37.09;102277.81;5095298;28;9703;-83
2022/02/15 11:50:44;;;;;;;;;118.75;113.50;;;;;13.26;51.02;102270.72;5111723;28;9676;-80
2022/02/15 11:53:21;;;;;;;;;186.33;176.67;;;;;13.44;46.70;102274.53;5095512;28;11619;-81
2022/02/15 11:56:06;;;;;;;;;122.67;108.00;;;;;13.11;45.52;102268.25;5111863;28;11583;-82
2022/02/15 11:58:43;;;;;;;;;363.00;322.50;;;;;13.22;51.63;102266.94;5112926;28;8864;-80
2022/02/15 12:01:53;;;;;;;;;56.25;47.50;;;;;12.96;43.16;102266.63;5112222;28;8864;-81
2022/02/15 12:05:06;;;;;;;;;98.33;94.67;;;;;13.22;51.22;102253.88;5110199;28;11244;-80
2022/02/15 12:07:47;;;;;;;;;80.50;64.75;;;;;13.44;50.41;102250.34;5109148;28;11601;-80
2022/02/15 12:10:43;;;;;;;;;79.00;70.33;;;;;13.60;43.84;102245.25;5100790;28;11556;-81
2022/02/15 12:13:21;;;;;;;;;36.00;33.25;;;;;13.59;46.93;102241.66;5114157;27;11671;-84
2022/02/15 12:16:17;;;;;;;;;60.75;50.75;;;;;13.00;42.39;102243.47;5107987;27;11510;-81
2022/02/15 12:18:46;;;;;;;;;2.67;2.67;;;;;12.81;37.27;102234.44;5115538;28;11897;-80
2022/02/15 12:21:41;;;;;;;;;8.25;7.50;;;;;12.73;36.05;102235.97;5114978;28;10183;-79
2022/02/15 12:24:37;;;;;;;;;5.00;5.00;;;;;11.61;37.08;102245.41;5114254;28;9531;-78
2022/02/15 12:27:32;;;;;;;;;3.50;3.50;;;;;11.91;37.07;102228.31;5101690;28;9863;-78
2022/02/15 12:30:00;;;;;;;;;4.00;4.00;;;;;11.63;36.83;102235.66;5115178;28;9659;-78
2022/02/15 12:32:56;;;;;;;;;8.25;8.25;;;;;11.92;37.43;102231.91;5114288;28;10010;-79
2022/02/15 12:35:37;;;;;;;;;4.50;4.50;;;;;12.02;35.66;102228.94;5097527;28;9955;-79
2022/02/15 12:38:06;;;;;;;;;4.75;4.75;;;;;12.30;36.01;102226.25;5097169;28;9918;-79
2022/02/15 12:41:12;;;;;;;;;3.00;3.00;;;;;12.04;36.12;102229.50;5100564;28;9843;-78
2022/02/15 12:44:08;;;;;;;;;5.00;5.00;;;;;11.64;36.29;102223.44;5100697;28;9689;-76
2022/02/15 12:46:37;;;;;;;;;3.00;3.00;;;;;11.84;35.11;102227.88;5115472;28;9630;-78